createdAt,value
2019-03-23T00:03:50.812Z,6.00
2019-03-23T00:08:57.388Z,6.00
2019-03-23T00:14:04.911Z,5.90
2019-03-23T00:19:11.553Z,5.90
2019-03-23T00:24:18.198Z,5.90
2019-03-23T00:29:24.693Z,5.80
2019-03-23T00:34:31.229Z,5.80
2019-03-23T00:39:37.931Z,5.70
2019-03-23T00:44:44.542Z,5.70
2019-03-23T00:49:51.196Z,5.70
2019-03-23T00:54:57.781Z,5.70
2019-03-23T01:00:04.699Z,5.60
2019-03-23T01:05:11.721Z,5.50
2019-03-23T01:10:18.268Z,5.50
2019-03-23T01:15:24.882Z,5.50
2019-03-23T01:20:31.540Z,5.50
2019-03-23T01:25:38.380Z,5.40
2019-03-23T01:30:45.016Z,5.30
2019-03-23T01:35:51.623Z,5.20
2019-03-23T01:40:58.184Z,5.20
2019-03-23T01:46:04.958Z,5.20
2019-03-23T01:51:11.598Z,5.10
2019-03-23T01:56:18.255Z,5.10
2019-03-23T02:01:25.789Z,5.10
2019-03-23T02:06:32.479Z,5.00
2019-03-23T02:11:39.051Z,5.00
2019-03-23T02:16:45.657Z,4.90
2019-03-23T02:21:52.246Z,4.90
2019-03-23T02:26:58.881Z,4.90
2019-03-23T02:32:05.399Z,4.90
2019-03-23T02:37:12.073Z,4.80
2019-03-23T02:42:19.095Z,4.90
2019-03-23T02:47:25.694Z,4.80
2019-03-23T02:52:32.265Z,4.70
2019-03-23T02:57:38.835Z,4.70
2019-03-23T03:02:45.570Z,4.60
2019-03-23T03:07:52.218Z,4.50
2019-03-23T03:12:58.884Z,4.40
2019-03-23T03:18:05.598Z,4.50
2019-03-23T03:23:12.318Z,4.50
2019-03-23T03:28:18.926Z,4.50
2019-03-23T03:33:25.553Z,4.40
2019-03-23T03:38:32.169Z,4.40
2019-03-23T03:43:38.817Z,4.40
2019-03-23T03:48:45.353Z,4.40
2019-03-23T03:53:51.828Z,4.30
2019-03-23T03:58:58.527Z,4.40
2019-03-23T04:04:05.188Z,4.30
2019-03-23T04:09:11.700Z,4.20
2019-03-23T04:14:18.195Z,4.20
2019-03-23T04:19:24.755Z,4.20
2019-03-23T04:24:31.342Z,4.20
2019-03-23T04:29:37.994Z,4.20
2019-03-23T04:34:44.551Z,4.20
2019-03-23T04:39:51.203Z,4.20
2019-03-23T04:44:58.826Z,4.20
2019-03-23T04:50:05.878Z,4.20
2019-03-23T04:55:13.063Z,4.20
2019-03-23T05:00:20.348Z,4.10
2019-03-23T05:05:26.933Z,4.10
2019-03-23T05:10:33.566Z,4.10
2019-03-23T05:15:40.107Z,4.20
2019-03-23T05:20:46.671Z,4.20
2019-03-23T05:25:53.368Z,4.10
2019-03-23T05:31:00.028Z,4.20
2019-03-23T05:36:06.671Z,4.20
2019-03-23T05:41:13.255Z,4.20
2019-03-23T05:46:20.875Z,4.20
2019-03-23T05:51:27.526Z,4.30
2019-03-23T05:56:34.104Z,4.40
2019-03-23T06:01:40.671Z,4.60
2019-03-23T06:06:47.186Z,4.70
2019-03-23T06:11:53.814Z,4.80
2019-03-23T06:17:00.460Z,4.90
2019-03-23T06:22:06.933Z,5.10
2019-03-23T06:27:13.519Z,5.30
2019-03-23T06:32:20.839Z,5.30
2019-03-23T06:37:27.516Z,5.50
2019-03-23T06:42:34.219Z,5.70
2019-03-23T06:47:40.791Z,5.90
2019-03-23T06:52:47.460Z,6.10
2019-03-23T06:57:53.967Z,6.40
2019-03-23T07:03:00.624Z,6.70
2019-03-23T07:08:07.258Z,7.00
2019-03-23T07:13:13.897Z,7.20
2019-03-23T07:18:20.521Z,7.50
2019-03-23T07:23:27.063Z,7.90
2019-03-23T07:28:33.673Z,8.20
2019-03-23T07:33:40.125Z,8.50
2019-03-23T07:38:46.602Z,9.00
2019-03-23T07:43:53.041Z,9.30
2019-03-23T07:48:59.641Z,9.80
2019-03-23T07:54:06.290Z,10.20
2019-03-23T07:59:12.991Z,10.80
2019-03-23T08:04:19.620Z,11.50
2019-03-23T08:09:37.406Z,12.20
2019-03-23T08:14:36.302Z,12.90
2019-03-23T08:19:43.024Z,13.40
2019-03-23T08:24:49.694Z,13.90
2019-03-23T08:29:56.422Z,14.30
2019-03-23T08:35:03.088Z,14.80
2019-03-23T08:40:09.752Z,15.10
2019-03-23T08:45:17.518Z,15.50
2019-03-23T08:50:24.126Z,15.80
2019-03-23T08:55:30.788Z,16.00
2019-03-23T09:00:37.356Z,16.30
2019-03-23T09:05:44.050Z,16.70
2019-03-23T09:10:51.697Z,16.90
2019-03-23T09:15:58.172Z,17.20
2019-03-23T09:21:04.770Z,18.00
2019-03-23T09:26:13.587Z,20.00
2019-03-23T09:31:19.430Z,22.70
2019-03-23T09:36:26.143Z,23.60
2019-03-23T09:41:33.644Z,24.30
2019-03-23T09:46:40.116Z,24.50
2019-03-23T09:51:46.644Z,24.70
2019-03-23T09:56:53.284Z,25.80
2019-03-23T10:01:59.959Z,26.60
2019-03-23T10:07:06.437Z,26.90
2019-03-23T10:12:13.063Z,26.80
2019-03-23T10:17:19.672Z,27.20
2019-03-23T10:22:26.246Z,27.50
2019-03-23T10:27:32.861Z,28.40
2019-03-23T10:32:39.491Z,28.70
2019-03-23T10:37:46.114Z,29.00
2019-03-23T10:42:52.623Z,28.70
2019-03-23T10:47:59.175Z,28.90
2019-03-23T10:53:05.775Z,29.50
2019-03-23T10:58:12.432Z,29.80
2019-03-23T11:03:19.056Z,29.40
2019-03-23T11:08:25.731Z,29.90
2019-03-23T11:13:32.329Z,30.60
2019-03-23T11:18:38.876Z,30.90
2019-03-23T11:23:45.631Z,30.90
2019-03-23T11:28:52.319Z,30.70
2019-03-23T11:33:58.979Z,30.00
2019-03-23T11:39:08.230Z,30.70
2019-03-23T11:44:14.835Z,29.20
2019-03-23T11:49:21.414Z,30.10
2019-03-23T11:54:27.884Z,30.20
2019-03-23T11:59:34.449Z,30.40
2019-03-23T12:04:41.167Z,31.50
2019-03-23T12:09:47.636Z,31.70
2019-03-23T12:14:54.219Z,31.20
2019-03-23T12:20:00.812Z,31.30
2019-03-23T12:25:07.724Z,31.80
2019-03-23T12:30:16.226Z,32.40
2019-03-23T12:35:23.773Z,32.50
2019-03-23T12:40:30.442Z,32.30
2019-03-23T12:45:38.823Z,31.80
2019-03-23T12:50:45.261Z,30.70
2019-03-23T12:55:51.957Z,30.30
2019-03-23T13:00:58.628Z,30.00
2019-03-23T13:06:05.233Z,28.20
2019-03-23T13:11:11.835Z,27.50
2019-03-23T13:16:18.401Z,26.70
2019-03-23T13:21:25.031Z,26.50
2019-03-23T13:26:31.461Z,26.40
2019-03-23T13:31:39.070Z,26.20
2019-03-23T13:36:45.694Z,25.40
2019-03-23T13:41:52.786Z,25.20
2019-03-23T13:46:59.464Z,24.40
2019-03-23T13:52:06.038Z,23.80
2019-03-23T13:57:12.697Z,23.90
2019-03-23T14:02:19.340Z,23.70
2019-03-23T14:07:25.995Z,23.10
2019-03-23T14:12:32.503Z,22.80
2019-03-23T14:17:39.089Z,22.40
2019-03-23T14:22:45.535Z,22.60
2019-03-23T14:27:52.183Z,22.60
2019-03-23T14:32:58.739Z,22.00
2019-03-23T14:38:05.415Z,21.60
2019-03-23T14:43:12.025Z,21.60
2019-03-23T14:48:18.630Z,21.50
2019-03-23T14:53:25.225Z,20.90
2019-03-23T14:58:31.871Z,20.50
2019-03-23T15:03:38.464Z,20.40
2019-03-23T15:08:45.176Z,20.20
2019-03-23T15:13:51.836Z,20.00
2019-03-23T15:18:58.659Z,19.80
2019-03-23T15:24:05.452Z,19.40
2019-03-23T15:29:12.077Z,19.20
2019-03-23T15:34:18.695Z,19.00
2019-03-23T15:39:25.392Z,18.80
2019-03-23T15:44:32.210Z,18.60
2019-03-23T15:49:38.882Z,18.50
2019-03-23T15:54:45.345Z,18.40
2019-03-23T15:59:51.937Z,18.30
2019-03-23T16:04:59.688Z,18.10
2019-03-23T16:10:06.655Z,18.00
2019-03-23T16:15:14.659Z,17.80
2019-03-23T16:20:21.268Z,17.70
2019-03-23T16:25:27.938Z,17.50
2019-03-23T16:30:35.046Z,17.40
2019-03-23T16:35:41.641Z,17.20
2019-03-23T16:40:48.301Z,16.90
2019-03-23T16:45:54.806Z,16.50
2019-03-23T16:51:01.600Z,16.20
2019-03-23T16:56:08.276Z,16.00
2019-03-23T17:01:14.861Z,15.90
2019-03-23T17:06:21.585Z,15.80
2019-03-23T17:11:28.286Z,15.70
2019-03-23T17:16:35.992Z,15.60
2019-03-23T17:21:42.590Z,15.40
2019-03-23T17:26:49.239Z,15.10
2019-03-23T17:31:57.144Z,15.00
2019-03-23T17:37:03.636Z,14.80
2019-03-23T17:42:11.455Z,14.70
2019-03-23T17:47:18.045Z,14.50
2019-03-23T17:52:24.609Z,14.30
2019-03-23T17:57:31.292Z,14.10
2019-03-23T18:02:38.039Z,13.90
2019-03-23T18:07:45.725Z,13.80
2019-03-23T18:12:52.293Z,13.60
2019-03-23T18:17:59.008Z,13.60
2019-03-23T18:23:05.915Z,13.50
2019-03-23T18:28:12.509Z,13.40
2019-03-23T18:33:19.176Z,13.30
2019-03-23T18:38:25.749Z,13.20
2019-03-23T18:43:32.447Z,13.00
2019-03-23T18:48:39.044Z,12.90
2019-03-23T18:53:45.742Z,12.80
2019-03-23T18:58:52.356Z,12.70
2019-03-23T19:03:58.930Z,12.70
2019-03-23T19:09:07.206Z,12.60
2019-03-23T19:14:13.952Z,12.50
2019-03-23T19:19:20.681Z,12.40
2019-03-23T19:24:27.299Z,12.30
2019-03-23T19:29:33.869Z,12.30
2019-03-23T19:34:40.397Z,12.10
2019-03-23T19:39:47.044Z,12.00
2019-03-23T19:44:53.537Z,11.80
2019-03-23T19:50:00.338Z,11.60
2019-03-23T19:55:06.909Z,11.60
2019-03-23T20:00:13.701Z,11.40
2019-03-23T20:05:20.307Z,11.40
2019-03-23T20:10:26.986Z,11.30
2019-03-23T20:15:33.589Z,11.30
2019-03-23T20:20:40.237Z,11.30
2019-03-23T20:25:46.968Z,11.20
2019-03-23T20:30:53.622Z,11.10
2019-03-23T20:36:00.158Z,11.00
2019-03-23T20:41:06.805Z,10.90
2019-03-23T20:46:13.438Z,10.60
2019-03-23T20:51:20.379Z,10.40
2019-03-23T20:56:27.029Z,10.20
2019-03-23T21:01:33.553Z,9.90
2019-03-23T21:06:40.143Z,9.70
2019-03-23T21:11:46.640Z,9.50
2019-03-23T21:16:53.232Z,9.50
2019-03-23T21:21:59.997Z,9.40
2019-03-23T21:27:06.498Z,9.40
2019-03-23T21:32:13.179Z,9.30
2019-03-23T21:37:19.662Z,9.10
2019-03-23T21:42:26.372Z,9.00
2019-03-23T21:47:32.987Z,8.90
2019-03-23T21:52:39.639Z,8.70
2019-03-23T21:57:46.479Z,8.60
2019-03-23T22:02:53.261Z,8.50
2019-03-23T22:07:59.740Z,8.60
2019-03-23T22:13:07.477Z,8.70
2019-03-23T22:18:14.026Z,8.80
2019-03-23T22:23:20.718Z,8.80
2019-03-23T22:28:27.421Z,9.00
2019-03-23T22:33:34.864Z,8.90
2019-03-23T22:38:41.590Z,9.00
2019-03-23T22:43:48.272Z,9.00
2019-03-23T22:48:54.980Z,9.00
2019-03-23T22:54:01.622Z,9.10
2019-03-23T22:59:08.226Z,9.10
2019-03-23T23:04:14.801Z,9.20
2019-03-23T23:09:21.207Z,9.20
2019-03-23T23:14:27.801Z,9.20
2019-03-23T23:19:34.472Z,9.20
2019-03-23T23:24:40.941Z,9.20
2019-03-23T23:29:47.661Z,9.30
2019-03-23T23:34:54.252Z,9.30
2019-03-23T23:40:00.720Z,9.20
2019-03-23T23:45:15.295Z,9.20
2019-03-23T23:50:16.658Z,9.30
2019-03-23T23:55:23.248Z,9.30
